Time;durP1;ratioP1;P1;durP2;ratioP2;P2;SDS_P1;SDS_P2;PMS_P1;PMS_P2;Temp;Humidity;BMP_temperature;BMP_pressure;BME280_temperature;BME280_humidity;BME280_pressure;Samples;Min_cycle;Max_cycle;Signal;HPM_P1;HPM_P2
2021/05/13 00:01:48;;;;;;;17.63;5.80;;;;;;;14.68;56.09;97683.48;2000501;89;21152;-71
2021/05/13 00:04:49;;;;;;;21.62;5.90;;;;;;;14.63;55.15;97680.44;2000490;88;21033;-71
2021/05/13 00:07:49;;;;;;;26.77;7.22;;;;;;;14.58;54.88;97683.14;2000387;88;21026;-71
2021/05/13 00:10:49;;;;;;;20.97;6.65;;;;;;;14.53;54.76;97683.59;2000475;88;21571;-72
2021/05/13 00:13:50;;;;;;;25.97;7.35;;;;;;;14.47;54.82;97682.37;2000381;88;21563;-72
2021/05/13 00:16:50;;;;;;;26.73;6.12;;;;;;;14.43;54.72;97673.08;2000189;88;21089;-72
2021/05/13 00:19:51;;;;;;;19.80;5.87;;;;;;;14.37;55.49;97677.13;2000232;88;21053;-72
2021/05/13 00:22:51;;;;;;;21.85;5.47;;;;;;;14.29;55.08;97670.42;2000399;88;21026;-72
2021/05/13 00:25:52;;;;;;;18.02;6.15;;;;;;;14.23;55.61;97667.05;2000501;88;21113;-71
2021/05/13 00:28:53;;;;;;;23.50;5.93;;;;;;;14.18;56.28;97666.18;2000488;89;21597;-72
2021/05/13 00:31:53;;;;;;;21.52;6.45;;;;;;;14.12;56.29;97660.17;2000226;88;21092;-71
2021/05/13 00:34:54;;;;;;;22.82;6.70;;;;;;;14.03;56.45;97658.39;2000373;88;21030;-71
2021/05/13 00:37:54;;;;;;;20.85;6.45;;;;;;;13.94;56.59;97654.81;2000453;88;21149;-72
2021/05/13 00:40:55;;;;;;;20.27;6.97;;;;;;;13.81;56.58;97655.13;2000469;88;21014;-71
2021/05/13 00:43:56;;;;;;;23.55;6.33;;;;;;;13.70;57.38;97660.55;2000319;88;21607;-71
2021/05/13 00:46:57;;;;;;;24.10;7.85;;;;;;;13.61;56.43;97660.09;2000313;88;21041;-72
2021/05/13 00:49:57;;;;;;;26.73;8.10;;;;;;;13.53;56.37;97659.47;2000446;88;21048;-72
2021/05/13 00:53:00;;;;;;;24.45;7.42;;;;;;;13.45;56.45;97664.62;2000087;88;21030;-71
2021/05/13 00:56:01;;;;;;;23.25;7.30;;;;;;;13.37;57.06;97664.48;1999047;89;21066;-72
2021/05/13 00:59:06;;;;;;;23.60;7.33;;;;;;;13.28;56.86;97668.26;1999448;88;21027;-70
2021/05/13 01:02:03;;;;;;;22.62;6.17;;;;;;;13.21;57.70;97658.43;1988468;89;21058;-70
2021/05/13 01:05:04;;;;;;;21.15;6.17;;;;;;;13.13;57.72;97661.27;1999345;88;21061;-70
2021/05/13 01:08:04;;;;;;;17.42;5.65;;;;;;;13.08;58.06;97656.08;1999214;88;21053;-71
2021/05/13 01:11:07;;;;;;;18.92;5.95;;;;;;;13.02;58.00;97655.31;1999235;88;21101;-70
2021/05/13 01:20:11;;;;;;;19.32;5.75;;;;;;;12.77;57.79;97656.16;1999238;88;20194;-71
2021/05/13 01:23:13;;;;;;;22.93;6.60;;;;;;;12.67;57.90;97660.58;1999263;88;21010;-71
2021/05/13 01:26:17;;;;;;;21.30;6.72;;;;;;;12.56;58.29;97660.22;1999073;88;21134;-71
2021/05/13 01:29:16;;;;;;;21.02;6.30;;;;;;;12.40;58.55;97655.48;1988212;89;21142;-71
2021/05/13 01:32:17;;;;;;;21.80;6.25;;;;;;;12.23;59.22;97654.30;1999094;88;21093;-71
2021/05/13 01:35:17;;;;;;;17.37;5.35;;;;;;;12.05;60.42;97656.70;1999188;88;21038;-70
2021/05/13 01:38:17;;;;;;;20.57;7.35;;;;;;;11.84;60.55;97646.19;1999183;88;21078;-71
2021/05/13 01:41:18;;;;;;;18.48;6.03;;;;;;;11.71;61.16;97644.62;1999338;88;21038;-71
2021/05/13 01:44:18;;;;;;;25.68;9.35;;;;;;;11.70;61.09;97642.95;1999226;88;21033;-69
2021/05/13 01:47:19;;;;;;;21.85;8.55;;;;;;;11.68;60.90;97641.41;1999321;88;21533;-70
2021/05/13 01:50:19;;;;;;;25.15;8.23;;;;;;;11.66;60.70;97636.28;1999259;88;21026;-69
2021/05/13 01:53:20;;;;;;;25.05;8.78;;;;;;;11.69;60.56;97629.95;1999483;88;21074;-70
2021/05/13 01:56:20;;;;;;;23.05;8.35;;;;;;;11.60;61.89;97623.67;2000191;88;21057;-70
2021/05/13 01:59:20;;;;;;;21.10;7.87;;;;;;;11.46;61.60;97625.31;2000299;88;21041;-70
2021/05/13 02:02:22;;;;;;;21.77;6.70;;;;;;;11.34;61.60;97621.94;2000450;88;21051;-71
2021/05/13 02:05:23;;;;;;;21.82;6.50;;;;;;;11.15;62.64;97622.60;2000425;88;21074;-70
2021/05/13 02:08:23;;;;;;;21.02;6.22;;;;;;;10.98;61.95;97620.90;2000279;88;21140;-70
2021/05/13 02:11:24;;;;;;;26.02;6.70;;;;;;;10.94;63.37;97616.03;2000189;88;21630;-70
2021/05/13 02:14:24;;;;;;;23.45;7.35;;;;;;;10.96;63.04;97621.52;2000367;88;21062;-70
2021/05/13 02:17:25;;;;;;;21.75;7.53;;;;;;;10.90;62.65;97614.98;2000344;88;21033;-71
2021/05/13 02:20:25;;;;;;;30.88;9.33;;;;;;;10.90;62.44;97610.19;2000457;88;21073;-71
2021/05/13 02:23:26;;;;;;;28.42;8.75;;;;;;;10.89;62.53;97609.37;2000485;88;21040;-70
2021/05/13 02:26:26;;;;;;;23.10;7.90;;;;;;;10.84;62.26;97611.52;2000432;89;21077;-70
2021/05/13 02:29:27;;;;;;;24.18;8.23;;;;;;;10.80;62.14;97604.86;2000544;89;21536;-70
2021/05/13 02:32:27;;;;;;;24.72;8.53;;;;;;;10.75;62.37;97605.73;2000345;88;21094;-69
2021/05/13 02:35:28;;;;;;;22.77;8.18;;;;;;;10.68;62.42;97609.31;2000261;88;21069;-68
2021/05/13 02:38:28;;;;;;;24.60;6.95;;;;;;;10.62;62.73;97610.30;2000333;88;21113;-68
2021/05/13 02:41:30;;;;;;;23.42;6.70;;;;;;;10.53;63.49;97606.61;2000474;88;21017;-69
2021/05/13 02:44:31;;;;;;;19.85;6.10;;;;;;;10.49;63.53;97602.59;2000839;88;21146;-69
2021/05/13 02:47:32;;;;;;;25.17;5.62;;;;;;;10.43;64.03;97596.05;2000673;88;21593;-68
2021/05/13 02:50:34;;;;;;;21.80;6.03;;;;;;;10.31;63.39;97597.80;2000814;88;21030;-69
2021/05/13 02:53:35;;;;;;;19.93;5.40;;;;;;;10.33;63.54;97596.37;2000834;88;21181;-69
2021/05/13 02:56:37;;;;;;;28.17;9.03;;;;;;;10.37;63.41;97593.44;2001574;89;21037;-69
2021/05/13 03:02:42;;;;;;;30.60;8.40;;;;;;;10.40;63.43;97591.02;2006719;89;21185;-69
2021/05/13 03:05:44;;;;;;;18.82;5.47;;;;;;;10.51;63.41;97588.87;1973954;90;21097;-70
2021/05/13 03:08:46;;;;;;;21.20;4.87;;;;;;;10.63;63.35;97585.27;1974221;90;21081;-69
2021/05/13 03:11:48;;;;;;;14.85;4.40;;;;;;;10.63;63.35;97585.27;1973865;90;21596;-68
2021/05/13 03:14:49;;;;;;;16.25;4.03;;;;;;;10.72;62.81;97576.64;1974212;90;21058;-69
2021/05/13 03:17:51;;;;;;;21.00;4.40;;;;;;;10.85;62.34;97578.27;1974175;90;21034;-69
2021/05/13 03:21:03;;;;;;;18.98;4.40;;;;;;;10.95;62.04;97579.17;1973980;90;21326;-70
2021/05/13 03:30:01;;;;;;;15.48;3.60;;;;;;;11.12;61.63;97577.78;1953181;90;21214;-69
2021/05/13 03:33:03;;;;;;;17.95;3.70;;;;;;;11.12;61.39;97571.23;1974314;90;21065;-69
2021/05/13 03:36:04;;;;;;;16.50;4.35;;;;;;;11.15;61.40;97570.97;1974200;90;21596;-69
2021/05/13 03:39:05;;;;;;;16.12;3.65;;;;;;;11.22;61.33;97577.83;1974319;90;21073;-69
2021/05/13 03:42:07;;;;;;;17.13;3.60;;;;;;;11.33;61.15;97578.25;1974170;90;21552;-68
2021/05/13 03:45:08;;;;;;;21.85;4.17;;;;;;;11.42;60.88;97570.45;1974247;90;21079;-68
2021/05/13 03:48:10;;;;;;;14.80;3.52;;;;;;;11.59;60.67;97566.39;1974194;90;21010;-70
2021/05/13 03:51:11;;;;;;;17.73;3.80;;;;;;;11.78;60.41;97569.58;1974035;90;21058;-69
2021/05/13 03:54:13;;;;;;;15.23;4.00;;;;;;;12.00;60.04;97569.56;1967949;89;21079;-69
2021/05/13 03:57:14;;;;;;;16.47;3.53;;;;;;;12.20;59.65;97563.88;1957536;90;21143;-69
2021/05/13 04:00:17;;;;;;;16.17;4.20;;;;;;;12.36;59.39;97561.55;1957698;90;21083;-69
2021/05/13 04:03:19;;;;;;;18.12;3.70;;;;;;;12.50;59.44;97547.19;1957599;90;21071;-69
2021/05/13 04:06:20;;;;;;;15.88;4.40;;;;;;;12.64;59.12;97552.05;1957692;90;21606;-71
2021/05/13 04:09:22;;;;;;;20.07;4.70;;;;;;;12.65;59.44;97546.29;1957832;90;21071;-70
2021/05/13 04:12:23;;;;;;;17.10;5.10;;;;;;;12.69;59.63;97548.17;1957814;90;21103;-71
2021/05/13 04:15:25;;;;;;;21.67;5.90;;;;;;;12.83;59.19;97548.58;1957840;90;21071;-69
2021/05/13 04:18:26;;;;;;;21.43;4.97;;;;;;;13.12;59.04;97554.80;1957839;90;21079;-69
2021/05/13 04:21:28;;;;;;;19.83;4.40;;;;;;;13.45;58.93;97550.88;1957705;90;21938;-70
2021/05/13 04:24:30;;;;;;;16.05;4.10;;;;;;;13.71;58.18;97539.70;1957607;90;21138;-70
2021/05/13 04:27:31;;;;;;;14.67;3.73;;;;;;;13.84;57.94;97538.05;1957656;90;21577;-70
2021/05/13 04:30:33;;;;;;;15.17;4.03;;;;;;;14.02;57.33;97526.22;1957825;90;21774;-69
2021/05/13 04:33:34;;;;;;;15.20;3.80;;;;;;;14.17;57.56;97526.08;1957692;90;21190;-70
2021/05/13 04:36:35;;;;;;;17.43;3.93;;;;;;;14.26;57.10;97515.62;1957750;90;21050;-71
2021/05/13 04:39:37;;;;;;;15.53;3.47;;;;;;;14.37;57.18;97518.05;1957803;90;21076;-73
2021/05/13 04:42:39;;;;;;;15.07;3.40;;;;;;;14.55;57.32;97517.57;1957679;90;21872;-74
2021/05/13 04:45:40;;;;;;;15.80;2.92;;;;;;;14.76;55.86;97507.22;1957671;90;21050;-74
2021/05/13 04:51:45;;;;;;;13.55;3.27;;;;;;;15.37;54.90;97525.33;1938354;91;21915;-74
2021/05/13 04:54:46;;;;;;;16.50;2.98;;;;;;;15.65;54.86;97516.40;1957523;89;21079;-74
2021/05/13 04:57:48;;;;;;;16.07;3.60;;;;;;;15.84;52.80;97512.20;1957662;90;21126;-75
2021/05/13 05:00:50;;;;;;;15.45;2.80;;;;;;;15.84;51.75;97499.48;1957334;90;21680;-75
2021/05/13 05:03:52;;;;;;;19.65;3.12;;;;;;;16.06;50.84;97497.59;1957613;90;21055;-74
2021/05/13 05:06:53;;;;;;;9.10;2.85;;;;;;;16.09;51.66;97496.41;1957557;90;21138;-75
2021/05/13 05:09:55;;;;;;;18.00;3.12;;;;;;;16.27;51.88;97492.34;1957450;90;21629;-72
2021/05/13 05:12:56;;;;;;;12.40;2.77;;;;;;;16.55;51.16;97485.42;1957577;90;21134;-74
2021/05/13 05:15:58;;;;;;;15.33;2.90;;;;;;;16.76;50.81;97478.33;1957542;90;21119;-72
2021/05/13 05:18:59;;;;;;;13.17;2.80;;;;;;;16.73;49.32;97472.05;1957708;90;21407;-74
2021/05/13 05:22:01;;;;;;;12.83;2.83;;;;;;;16.75;49.70;97470.05;1957671;90;21596;-75
2021/05/13 05:25:02;;;;;;;13.65;2.62;;;;;;;16.89;49.33;97473.38;1957428;90;21841;-75
2021/05/13 05:28:04;;;;;;;11.75;3.00;;;;;;;17.15;49.75;97476.33;1957668;91;21094;-74
2021/05/13 05:31:06;;;;;;;17.52;3.20;;;;;;;17.35;49.35;97472.81;1957421;90;21617;-76
2021/05/13 05:34:07;;;;;;;10.80;2.90;;;;;;;17.56;49.37;97472.77;1957660;90;21046;-75
2021/05/13 05:37:09;;;;;;;12.15;2.70;;;;;;;17.78;48.34;97468.02;1957434;90;21114;-76
2021/05/13 05:40:12;;;;;;;15.50;3.12;;;;;;;18.04;47.85;97473.57;1957571;90;21068;-75
2021/05/13 05:43:13;;;;;;;11.90;2.83;;;;;;;18.27;47.35;97472.78;1938725;91;21087;-75
2021/05/13 05:46:15;;;;;;;17.10;3.10;;;;;;;18.53;47.38;97465.80;1957494;90;21134;-76
2021/05/13 05:49:16;;;;;;;13.00;2.80;;;;;;;18.61;46.42;97463.59;1957776;90;21082;-75
2021/05/13 05:52:18;;;;;;;13.10;3.30;;;;;;;18.63;45.00;97454.94;1957645;90;21047;-76
2021/05/13 05:55:19;;;;;;;10.58;2.98;;;;;;;18.71;45.18;97464.17;1975337;89;21692;-76
2021/05/13 05:58:20;;;;;;;14.75;3.02;;;;;;;18.82;44.29;97453.13;2000549;89;21049;-74
2021/05/13 06:01:22;;;;;;;17.85;3.75;;;;;;;18.61;45.32;97459.62;2000457;88;21097;-75
2021/05/13 06:04:23;;;;;;;14.70;3.20;;;;;;;18.42;45.33;97455.11;2000583;88;21042;-74
2021/05/13 06:07:25;;;;;;;19.67;3.47;;;;;;;18.63;45.24;97450.95;2000548;88;21112;-73
2021/05/13 06:10:26;;;;;;;15.95;3.22;;;;;;;18.83;44.17;97453.46;2000468;88;21548;-72
2021/05/13 06:13:28;;;;;;;10.72;2.72;;;;;;;18.66;45.52;97449.27;2000576;89;21193;-74
2021/05/13 06:16:30;;;;;;;;;;;;;;;18.46;44.90;97453.75;2002716;89;21592;-75
2021/05/13 06:19:31;;;;;;;13.05;2.95;;;;;;;18.83;45.16;97454.79;2000566;88;20209;-75
2021/05/13 06:22:33;;;;;;;16.15;3.90;;;;;;;18.97;44.69;97451.85;2000452;88;21548;-73
2021/05/13 06:25:34;;;;;;;12.63;3.20;;;;;;;19.17;43.03;97457.98;2000542;88;21126;-73
2021/05/13 06:28:35;;;;;;;14.87;4.00;;;;;;;19.24;43.12;97444.29;2000568;88;21050;-76
2021/05/13 06:31:37;;;;;;;13.78;3.40;;;;;;;19.42;43.93;97438.59;2000425;88;21169;-75
2021/05/13 06:34:38;;;;;;;15.13;3.35;;;;;;;19.71;43.79;97435.59;2000426;88;21624;-74
2021/05/13 06:37:40;;;;;;;13.32;3.40;;;;;;;19.90;43.54;97426.25;2000654;88;21005;-75
2021/05/13 06:40:41;;;;;;;9.20;3.10;;;;;;;19.89;42.28;97432.05;2000401;88;21726;-76
2021/05/13 06:43:43;;;;;;;13.15;3.30;;;;;;;20.05;42.41;97430.19;2000571;88;21014;-75
2021/05/13 06:46:44;;;;;;;14.13;3.50;;;;;;;20.34;41.45;97427.95;2000767;89;21062;-72
2021/05/13 06:49:46;;;;;;;10.75;3.10;;;;;;;20.51;41.42;97423.69;2000467;88;21010;-74
2021/05/13 06:52:47;;;;;;;10.50;3.02;;;;;;;20.33;40.25;97424.12;2000440;88;21157;-76
2021/05/13 06:55:52;;;;;;;11.68;3.17;;;;;;;20.08;40.02;97420.49;1999711;88;21069;-75
2021/05/13 06:58:52;;;;;;;13.75;3.27;;;;;;;20.35;41.17;97422.11;1988413;89;21086;-76
2021/05/13 07:01:55;;;;;;;14.68;3.10;;;;;;;20.47;39.99;97423.75;1999704;89;21033;-72
2021/05/13 07:04:56;;;;;;;17.32;3.27;;;;;;;20.48;40.09;97420.89;1999469;88;21142;-76
2021/05/13 07:07:58;;;;;;;12.82;3.08;;;;;;;20.64;39.73;97417.13;1999599;88;21110;-75
2021/05/13 07:11:00;;;;;;;16.50;3.20;;;;;;;20.64;39.56;97410.47;1999456;88;21089;-69
2021/05/13 07:14:01;;;;;;;13.28;2.98;;;;;;;20.83;39.92;97413.52;1999328;88;21061;-76
2021/05/13 07:17:03;;;;;;;17.87;3.30;;;;;;;21.03;38.83;97417.66;1999572;88;21046;-76
2021/05/13 07:20:04;;;;;;;14.60;3.33;;;;;;;21.09;40.13;97418.23;1999622;88;21140;-75
2021/05/13 07:23:06;;;;;;;14.25;3.55;;;;;;;21.28;38.16;97408.19;1999482;88;21567;-75
2021/05/13 07:26:07;;;;;;;13.75;3.30;;;;;;;21.27;37.84;97405.72;1999563;88;21057;-75
2021/05/13 07:29:10;;;;;;;11.43;3.30;;;;;;;21.02;37.17;97413.34;1999438;89;21054;-73
2021/05/13 07:32:11;;;;;;;14.83;3.22;;;;;;;21.01;37.20;97409.05;1999437;89;21150;-75
2021/05/13 07:35:14;;;;;;;11.03;2.90;;;;;;;21.22;36.76;97404.14;1999419;88;21058;-71
2021/05/13 07:38:16;;;;;;;11.68;2.95;;;;;;;20.93;38.02;97402.85;1999328;88;21578;-74
2021/05/13 07:41:17;;;;;;;10.63;3.20;;;;;;;21.14;38.28;97393.13;1999559;88;21129;-74
2021/05/13 07:44:19;;;;;;;16.32;3.30;;;;;;;21.09;36.06;97392.91;1999560;88;21077;-74
2021/05/13 07:47:22;;;;;;;14.23;3.30;;;;;;;21.20;38.21;97395.52;1999524;88;21116;-76
2021/05/13 07:50:24;;;;;;;10.15;2.90;;;;;;;21.58;37.78;97393.29;1999323;88;21596;-74
2021/05/13 07:53:26;;;;;;;10.75;3.00;;;;;;;21.81;36.15;97388.15;1999430;88;21077;-72
2021/05/13 07:56:27;;;;;;;13.72;3.40;;;;;;;21.84;37.09;97390.41;2000181;88;21556;-74
2021/05/13 07:59:29;;;;;;;17.25;3.25;;;;;;;22.10;36.06;97388.31;2000658;88;21114;-75
2021/05/13 08:02:31;;;;;;;;;;;;;;;22.38;36.30;97390.02;2003037;89;21034;-75
2021/05/13 08:05:32;;;;;;;14.43;3.60;;;;;;;22.67;36.31;97393.34;2000563;88;20229;-75
2021/05/13 08:08:33;;;;;;;19.30;5.10;;;;;;;22.97;36.22;97388.38;2000639;88;21002;-73
2021/05/13 08:11:35;;;;;;;13.20;3.33;;;;;;;23.33;35.35;97386.25;2000463;88;21656;-75
2021/05/13 08:14:36;;;;;;;18.30;3.70;;;;;;;23.31;35.45;97377.11;2000600;88;21133;-75
2021/05/13 08:17:38;;;;;;;14.30;3.50;;;;;;;23.49;35.40;97376.44;2000754;88;21037;-75
2021/05/13 08:20:39;;;;;;;16.37;3.87;;;;;;;23.74;34.95;97368.21;2000492;88;21584;-76
2021/05/13 08:23:41;;;;;;;14.00;3.67;;;;;;;23.89;34.25;97374.11;2000647;88;21098;-76
2021/05/13 08:26:42;;;;;;;10.68;3.30;;;;;;;24.10;34.71;97374.30;2000595;88;21061;-73
2021/05/13 08:29:44;;;;;;;15.50;3.40;;;;;;;24.29;32.80;97367.70;2000479;88;21591;-74
2021/05/13 08:32:45;;;;;;;16.12;3.75;;;;;;;24.03;34.23;97358.30;2000475;88;21223;-75
2021/05/13 08:35:47;;;;;;;12.23;3.25;;;;;;;24.15;35.23;97359.77;2000703;88;21048;-76
2021/05/13 08:38:48;;;;;;;12.33;3.47;;;;;;;24.20;32.68;97356.42;2000752;88;21128;-73
2021/05/13 08:41:49;;;;;;;14.65;3.83;;;;;;;24.34;33.63;97355.82;2000501;88;21029;-75
2021/05/13 08:44:51;;;;;;;16.55;3.70;;;;;;;24.38;33.47;97354.35;2000590;88;21105;-76
2021/05/13 08:47:52;;;;;;;13.90;3.65;;;;;;;24.67;34.33;97346.72;2000612;88;21053;-76
2021/05/13 08:50:54;;;;;;;16.42;3.85;;;;;;;24.97;33.34;97350.86;2000538;88;21544;-74
2021/05/13 08:53:55;;;;;;;17.25;3.98;;;;;;;25.04;32.96;97348.92;2000607;88;21148;-75
2021/05/13 08:56:57;;;;;;;16.55;3.80;;;;;;;25.19;32.98;97346.40;2001096;88;21085;-73
2021/05/13 08:59:58;;;;;;;12.80;3.58;;;;;;;25.36;33.42;97349.34;2001245;89;21217;-76
2021/05/13 09:02:59;;;;;;;14.05;3.87;;;;;;;25.51;32.91;97339.02;2001370;89;21026;-75
2021/05/13 09:06:01;;;;;;;14.55;3.55;;;;;;;25.74;32.50;97342.86;2001292;89;21643;-74
2021/05/13 09:09:02;;;;;;;14.90;3.60;;;;;;;25.86;30.18;97342.89;2001422;89;21029;-76
2021/05/13 09:12:04;;;;;;;14.25;3.52;;;;;;;25.51;31.47;97345.72;2001265;89;21114;-73
2021/05/13 09:15:06;;;;;;;13.32;3.50;;;;;;;25.28;29.91;97338.87;2001243;89;21073;-76
2021/05/13 09:18:11;;;;;;;14.15;3.67;;;;;;;25.04;30.47;97327.97;2001240;89;21081;-75
2021/05/13 09:21:11;;;;;;;11.50;3.72;;;;;;;24.82;31.63;97331.09;1979473;89;21061;-75
2021/05/13 09:24:12;;;;;;;15.93;4.25;;;;;;;24.69;30.89;97323.99;2001274;89;21041;-75
2021/05/13 09:27:14;;;;;;;11.97;3.60;;;;;;;24.91;30.50;97326.25;2001257;89;21093;-73
2021/05/13 09:30:17;;;;;;;14.43;3.50;;;;;;;24.94;31.98;97327.17;2001179;89;21703;-75
2021/05/13 09:33:18;;;;;;;14.38;3.55;;;;;;;24.90;31.47;97330.00;2001131;89;21572;-75
2021/05/13 09:36:20;;;;;;;13.18;3.92;;;;;;;23.98;31.67;97330.00;2001352;89;21053;-71
2021/05/13 09:39:21;;;;;;;19.42;4.53;;;;;;;23.57;33.52;97330.41;2001265;89;21053;-75
2021/05/13 09:42:23;;;;;;;16.37;4.30;;;;;;;23.74;31.53;97333.41;2001341;89;21045;-75
2021/05/13 09:45:24;;;;;;;15.28;4.08;;;;;;;23.69;32.71;97329.52;2001451;89;21073;-74
2021/05/13 09:48:26;;;;;;;15.23;4.00;;;;;;;23.51;33.37;97324.05;2001208;89;21026;-75
2021/05/13 09:51:28;;;;;;;17.48;4.15;;;;;;;23.49;33.01;97322.93;2001330;89;21070;-75
2021/05/13 09:54:29;;;;;;;15.85;4.15;;;;;;;24.10;33.08;97315.39;2000916;89;21740;-75
2021/05/13 09:57:31;;;;;;;11.93;3.75;;;;;;;24.29;33.20;97310.09;2001119;88;21085;-76
2021/05/13 10:00:33;;;;;;;12.05;3.55;;;;;;;24.41;33.73;97308.36;2001123;89;21617;-75
2021/05/13 10:03:34;;;;;;;15.48;3.72;;;;;;;24.78;32.58;97303.61;2001127;89;21065;-75
2021/05/13 10:06:36;;;;;;;12.50;4.08;;;;;;;24.68;31.46;97307.62;2001089;89;21528;-75
2021/05/13 10:09:38;;;;;;;11.85;3.70;;;;;;;24.37;33.44;97308.49;2001022;89;21576;-75
2021/05/13 10:12:39;;;;;;;15.90;4.20;;;;;;;24.33;31.83;97303.27;2001229;89;21066;-75
2021/05/13 10:15:41;;;;;;;16.45;4.08;;;;;;;24.25;32.86;97300.36;2001201;89;21070;-75
2021/05/13 10:18:42;;;;;;;19.73;4.15;;;;;;;24.08;32.38;97298.73;2001020;89;21532;-75
2021/05/13 10:21:44;;;;;;;18.40;4.08;;;;;;;23.98;32.81;97286.34;2001127;89;21065;-74
2021/05/13 10:24:45;;;;;;;12.65;3.95;;;;;;;23.93;33.64;97286.17;2001243;89;21045;-75
2021/05/13 10:27:47;;;;;;;20.55;4.17;;;;;;;23.41;34.16;97283.56;2001114;89;21033;-75
2021/05/13 10:30:48;;;;;;;14.93;3.77;;;;;;;23.21;33.54;97289.81;2001249;89;20998;-75
2021/05/13 10:33:50;;;;;;;17.25;4.35;;;;;;;23.99;35.26;97282.61;2001109;89;21555;-75
2021/05/13 10:36:52;;;;;;;17.62;4.33;;;;;;;24.65;32.25;97271.05;2001280;89;21026;-76
2021/05/13 10:39:53;;;;;;;16.45;4.12;;;;;;;24.66;32.10;97276.72;2001297;89;21576;-75
2021/05/13 10:42:56;;;;;;;15.20;3.95;;;;;;;24.28;32.95;97273.13;2001148;89;21592;-75
2021/05/13 10:45:57;;;;;;;;;;;;;;;24.84;32.74;97270.53;2003646;89;21086;-73
2021/05/13 10:48:59;;;;;;;15.58;4.35;;;;;;;24.43;32.43;97266.08;2001225;89;20517;-75
2021/05/13 10:52:00;;;;;;;16.40;3.85;;;;;;;23.62;33.44;97266.34;2001362;89;21199;-75
2021/05/13 10:55:02;;;;;;;17.45;4.08;;;;;;;23.15;34.68;97263.40;2001376;89;21045;-75
2021/05/13 10:58:05;;;;;;;11.73;4.08;;;;;;;23.08;34.62;97256.42;2000390;88;21085;-75
2021/05/13 11:01:06;;;;;;;15.18;4.42;;;;;;;23.11;34.82;97254.16;2000332;88;21113;-75
2021/05/13 11:04:08;;;;;;;16.90;3.95;;;;;;;23.25;35.21;97256.27;2000555;88;21022;-74
2021/05/13 11:07:09;;;;;;;17.67;3.95;;;;;;;23.20;34.36;97249.38;2000556;88;21025;-74
2021/05/13 11:10:11;;;;;;;;;;;;;;;23.57;35.29;97242.91;2002761;88;21612;-75
2021/05/13 11:13:12;;;;;;;15.48;3.95;;;;;;;23.53;34.79;97239.87;2000571;88;20237;-75
2021/05/13 11:16:14;;;;;;;15.25;4.30;;;;;;;23.74;32.67;97239.20;2000400;88;21661;-75
2021/05/13 11:19:15;;;;;;;16.02;4.22;;;;;;;24.26;33.71;97239.55;2000559;88;21133;-76
2021/05/13 11:22:17;;;;;;;17.70;3.98;;;;;;;24.97;33.33;97232.87;2000425;88;21066;-75
2021/05/13 11:25:18;;;;;;;15.53;4.20;;;;;;;25.76;32.44;97222.65;2000319;88;21588;-76
2021/05/13 11:28:20;;;;;;;12.20;3.72;;;;;;;26.56;32.36;97226.67;2000681;88;21137;-76
2021/05/13 11:31:21;;;;;;;12.30;4.00;;;;;;;26.93;29.62;97222.91;2000416;88;21528;-75
2021/05/13 11:34:23;;;;;;;12.58;4.10;;;;;;;27.30;31.59;97222.02;2000522;88;21105;-76
2021/05/13 11:37:24;;;;;;;17.80;4.53;;;;;;;27.40;28.29;97221.97;2000542;88;21058;-75
2021/05/13 11:40:26;;;;;;;15.43;4.20;;;;;;;27.46;30.25;97208.34;2000446;88;21539;-76
2021/05/13 11:43:28;;;;;;;;;;;;;;;26.57;28.53;97205.46;2002674;88;21197;-76
2021/05/13 11:46:30;;;;;;;13.03;3.95;;;;;;;25.56;30.59;97200.94;2000279;88;20531;-76
2021/05/13 11:49:31;;;;;;;12.88;3.80;;;;;;;25.42;31.01;97204.86;2000296;88;21094;-76
2021/05/13 11:52:33;;;;;;;20.82;4.12;;;;;;;25.69;31.75;97209.31;2000516;88;21037;-76
2021/05/13 11:55:35;;;;;;;14.58;4.33;;;;;;;26.02;29.69;97209.34;2000276;88;21085;-76
2021/05/13 11:58:39;;;;;;;15.83;4.17;;;;;;;26.45;30.23;97206.02;2001371;89;21070;-77
2021/05/13 12:01:40;;;;;;;12.85;4.40;;;;;;;26.34;30.51;97209.53;1979761;89;21049;-77
2021/05/13 12:04:41;;;;;;;;;;;;;;;26.33;29.00;97204.66;2003612;89;21585;-77
2021/05/13 12:07:43;;;;;;;18.87;4.90;;;;;;;26.88;28.64;97205.31;2001432;89;20170;-77
2021/05/13 12:10:44;;;;;;;13.88;4.47;;;;;;;27.54;29.80;97201.77;2001045;89;21722;-73
2021/05/13 12:13:46;;;;;;;;;;;;;;;27.55;27.20;97196.65;2003598;89;21104;-76
2021/05/13 12:16:48;;;;;;;12.43;3.83;;;;;;;27.60;28.45;97198.09;2001097;89;20506;-76
2021/05/13 12:19:49;;;;;;;;;;;;;;;27.69;27.05;97190.43;2003588;89;21049;-77
2021/05/13 12:22:51;;;;;;;18.67;4.85;;;;;;;27.79;29.01;97189.79;2001336;89;20575;-77
2021/05/13 12:25:52;;;;;;;14.20;4.22;;;;;;;28.05;28.39;97188.87;2001294;89;21136;-77
2021/05/13 12:28:54;;;;;;;14.83;4.30;;;;;;;27.43;26.74;97191.33;2001219;89;21057;-74
2021/05/13 12:31:55;;;;;;;13.80;4.22;;;;;;;26.41;27.53;97198.13;2001196;89;21088;-76
2021/05/13 12:34:57;;;;;;;13.50;4.37;;;;;;;25.56;28.63;97197.45;2001303;89;21073;-76
2021/05/13 12:37:58;;;;;;;17.30;4.53;;;;;;;25.06;29.91;97195.30;2001138;89;21575;-75
2021/05/13 12:40:59;;;;;;;13.85;3.92;;;;;;;24.72;30.26;97196.75;2001414;89;21026;-75
2021/05/13 12:44:01;;;;;;;15.10;4.33;;;;;;;24.82;29.90;97196.23;2001093;89;21544;-76
2021/05/13 12:47:03;;;;;;;12.30;4.10;;;;;;;24.95;30.05;97199.27;2001257;89;21085;-76
2021/05/13 12:50:04;;;;;;;13.93;4.10;;;;;;;25.51;29.34;97191.94;2001314;89;21095;-68
2021/05/13 12:53:06;;;;;;;16.67;4.55;;;;;;;25.33;29.77;97191.45;2001132;89;21060;-76
2021/05/13 12:56:07;;;;;;;14.70;4.40;;;;;;;25.21;30.01;97188.20;2001175;88;21096;-76
2021/05/13 12:59:09;;;;;;;13.48;4.00;;;;;;;25.42;30.17;97196.81;2001142;89;21559;-76
2021/05/13 13:02:10;;;;;;;13.68;4.08;;;;;;;25.71;29.58;97186.27;2001262;89;21040;-76
2021/05/13 13:05:11;;;;;;;12.82;4.33;;;;;;;26.32;28.64;97179.37;2001093;89;21151;-69
2021/05/13 13:08:13;;;;;;;14.55;4.10;;;;;;;26.84;29.73;97168.67;2001301;89;21002;-76
2021/05/13 13:11:14;;;;;;;;;;;;;;;27.43;28.40;97165.76;2003576;89;21039;-68
2021/05/13 13:14:16;;;;;;;15.25;4.30;;;;;;;27.87;27.99;97167.00;2001121;89;20176;-76
2021/05/13 13:17:17;;;;;;;12.47;3.80;;;;;;;27.64;28.01;97175.52;2001313;89;21002;-76
2021/05/13 13:20:18;;;;;;;19.35;5.45;;;;;;;26.76;28.37;97171.73;2001165;89;21520;-76
2021/05/13 13:23:20;;;;;;;14.93;4.30;;;;;;;26.36;28.92;97179.20;2001273;89;21026;-76
2021/05/13 13:26:24;;;;;;;;;;;;;;;26.49;29.02;97181.63;2003541;89;21021;-76
2021/05/13 13:29:25;;;;;;;15.68;3.95;;;;;;;26.75;29.97;97172.27;2000529;88;20567;-75
2021/05/13 13:32:28;;;;;;;15.15;4.05;;;;;;;27.32;27.80;97169.30;2001135;89;21125;-76
2021/05/13 13:35:30;;;;;;;15.05;4.47;;;;;;;27.69;26.02;97166.73;2001115;89;21053;-77
2021/05/13 13:38:31;;;;;;;;;;;;;;;28.13;28.38;97166.37;2003796;89;21041;-77
2021/05/13 13:41:33;;;;;;;13.28;4.30;;;;;;;28.74;26.93;97162.08;2001279;88;20173;-77
2021/05/13 13:44:34;;;;;;;;;;;;;;;29.22;27.86;97159.08;2003623;89;21017;-77
2021/05/13 13:47:36;;;;;;;16.30;4.95;;;;;;;29.67;27.79;97153.06;2001239;89;20177;-73
2021/05/13 13:50:37;;;;;;;15.13;4.20;;;;;;;29.11;25.20;97155.48;2001224;89;21037;-77
2021/05/13 13:53:39;;;;;;;;;;;;;;;29.14;25.85;97155.52;2003482;89;21609;-77
2021/05/13 13:56:40;;;;;;;18.80;4.80;;;;;;;29.16;25.80;97152.01;2001083;88;20161;-77
2021/05/13 13:59:41;;;;;;;;;;;;;;;29.10;26.15;97144.94;2002693;88;21710;-77
2021/05/13 14:02:43;;;;;;;15.50;4.17;;;;;;;28.94;26.59;97154.21;2000596;88;20149;-77
2021/05/13 14:05:45;;;;;;;21.17;4.30;;;;;;;29.33;26.33;97146.00;2000186;88;21687;-68
2021/05/13 14:08:47;;;;;;;13.93;4.20;;;;;;;29.71;27.13;97143.34;2000400;88;21014;-77
2021/05/13 14:11:49;;;;;;;14.45;4.12;;;;;;;29.93;25.83;97145.19;2000357;88;21102;-77
2021/05/13 14:14:51;;;;;;;14.18;4.20;;;;;;;29.90;23.82;97139.75;2000471;88;21141;-77
2021/05/13 14:17:53;;;;;;;17.05;4.47;;;;;;;29.36;25.81;97142.78;2000421;88;21552;-73
2021/05/13 14:20:54;;;;;;;15.25;4.50;;;;;;;29.15;25.99;97144.45;2000490;88;21109;-74
2021/05/13 14:23:56;;;;;;;;;;;;;;;28.53;26.27;97149.64;2002760;88;21046;-76
2021/05/13 14:26:57;;;;;;;15.03;4.35;;;;;;;28.07;26.57;97146.33;2000474;88;20248;-76